Time;durP1;ratioP1;P1;durP2;ratioP2;P2;SDS_P1;SDS_P2;PMS_P1;PMS_P2;Temp;Humidity;BMP_temperature;BMP_pressure;BME280_temperature;BME280_humidity;BME280_pressure;Samples;Min_cycle;Max_cycle;Signal;HPM_P1;HPM_P2
2022/09/01 00:02:07;;;;;;;;;16.00;12.00;;;;;23.77;48.67;100970.97;5083669;27;45263;-54
2022/09/01 00:04:33;;;;;;;;;14.60;13.40;;;;;23.80;49.27;100973.19;5100888;27;45436;-53
2022/09/01 00:06:59;;;;;;;;;12.00;12.00;;;;;23.77;49.05;100956.94;5110157;27;45529;-52
2022/09/01 00:09:24;;;;;;;;;13.50;13.25;;;;;23.86;48.62;100968.34;5098071;27;45440;-54
2022/09/01 00:11:52;;;;;;;;;13.50;11.50;;;;;23.66;48.94;100945.88;5080176;27;45396;-49
2022/09/01 00:14:19;;;;;;;;;18.00;16.20;;;;;23.82;49.05;100962.50;5079677;27;45600;-53
2022/09/01 00:16:45;;;;;;;;;14.40;11.20;;;;;23.75;49.04;100956.41;5079786;27;45401;-56
2022/09/01 00:19:10;;;;;;;;;15.80;15.20;;;;;23.66;49.56;100965.47;5079826;27;45303;-55
2022/09/01 00:21:39;;;;;;;;;15.50;15.50;;;;;23.42;49.38;100929.00;5079448;27;45321;-53
2022/09/01 00:24:04;;;;;;;;;16.20;15.60;;;;;23.52;49.98;100953.28;5097934;27;45536;-51
2022/09/01 00:26:30;;;;;;;;;15.25;14.50;;;;;23.52;49.68;100950.47;5079263;27;45426;-53
2022/09/01 00:28:55;;;;;;;;;15.75;13.25;;;;;23.59;49.47;100951.00;5062086;27;45513;-51
2022/09/01 00:31:21;;;;;;;;;10.50;10.50;;;;;23.38;49.75;100936.34;5076793;27;45773;-51
2022/09/01 00:33:47;;;;;;;;;14.00;13.50;;;;;23.47;49.93;100954.16;5083009;27;45419;-51
2022/09/01 00:36:14;;;;;;;;;12.20;12.20;;;;;23.57;49.80;100958.00;5099299;27;46160;-55
2022/09/01 00:38:39;;;;;;;;;14.40;14.40;;;;;23.51;49.63;100940.41;5118071;27;45304;-55
2022/09/01 00:41:06;;;;;;;;;14.75;12.75;;;;;23.41;50.01;100932.94;5118377;27;45945;-51
2022/09/01 00:43:35;;;;;;;;;13.20;13.20;;;;;23.49;49.44;100957.53;5118460;27;45821;-52
2022/09/01 00:46:02;;;;;;;;;12.80;12.80;;;;;22.99;50.03;100884.84;5117801;27;45495;-52
2022/09/01 00:48:27;;;;;;;;;15.20;13.40;;;;;23.40;50.24;100948.06;5117925;27;45362;-51
2022/09/01 00:50:52;;;;;;;;;14.00;14.00;;;;;23.41;49.84;100952.53;5118010;27;45429;-53
2022/09/01 00:53:18;;;;;;;;;15.50;15.00;;;;;23.36;49.95;100946.97;5099616;27;45523;-52
2022/09/01 00:55:43;;;;;;;;;16.00;16.00;;;;;23.42;50.21;100946.66;5117532;27;45463;-54
2022/09/01 00:58:09;;;;;;;;;12.25;11.25;;;;;23.51;49.83;100957.19;5099265;27;45271;-52
2022/09/01 01:00:39;;;;;;;;;12.00;12.00;;;;;23.46;50.12;100944.09;5117868;27;45428;-54
2022/09/01 01:03:08;;;;;;;;;13.40;12.00;;;;;23.38;50.31;100941.94;5083223;27;45290;-52
2022/09/01 01:05:45;;;;;;;;;9.80;9.80;;;;;23.37;50.10;100943.88;5099526;27;46547;-52
2022/09/01 01:08:11;;;;;;;;;15.00;12.40;;;;;23.20;50.06;100933.09;5103637;27;45237;-49
2022/09/01 01:10:38;;;;;;;;;11.00;10.50;;;;;23.32;50.22;100941.13;5078758;27;45373;-51
2022/09/01 01:13:12;;;;;;;;;14.20;14.20;;;;;23.32;50.41;100935.53;5079019;27;45642;-52
2022/09/01 01:15:42;;;;;;;;;14.40;13.40;;;;;23.38;50.17;100944.75;5078632;27;45438;-52
2022/09/01 01:18:11;;;;;;;;;11.20;11.20;;;;;23.36;50.18;100942.22;5096732;27;45290;-52
2022/09/01 01:23:35;;;;;;;;;15.20;15.20;;;;;23.20;50.93;100941.50;5081542;27;45501;-53
2022/09/01 01:26:03;;;;;;;;;13.80;11.40;;;;;23.04;50.90;100906.38;5078442;27;46959;-52
2022/09/01 01:28:30;;;;;;;;;12.40;11.20;;;;;23.19;50.91;100941.78;5061514;27;45200;-54
2022/09/01 01:31:11;;;;;;;;;10.80;10.80;;;;;23.20;50.63;100938.69;5096656;27;45190;-54
2022/09/01 01:33:40;;;;;;;;;11.20;11.20;;;;;23.22;50.96;100944.00;5078712;27;45444;-51
2022/09/01 01:36:16;;;;;;;;;10.40;10.40;;;;;23.14;50.72;100943.50;5096320;27;45833;-53
2022/09/01 01:38:43;;;;;;;;;10.60;9.40;;;;;23.10;50.85;100939.59;5078436;27;45358;-51
2022/09/01 01:41:09;;;;;;;;;12.60;12.00;;;;;22.94;51.19;100904.50;5061490;27;45319;-50
2022/09/01 01:43:36;;;;;;;;;14.40;13.80;;;;;23.06;51.43;100938.53;5077544;27;45615;-50
2022/09/01 01:46:04;;;;;;;;;14.20;12.80;;;;;22.96;51.35;100933.84;5078050;27;46253;-52
2022/09/01 01:48:33;;;;;;;;;11.80;11.80;;;;;22.85;51.62;100916.28;5061450;27;45255;-53
2022/09/01 01:50:59;;;;;;;;;10.40;10.20;;;;;23.03;51.53;100944.72;5095286;27;45794;-50
2022/09/01 01:53:25;;;;;;;;;18.20;15.20;;;;;22.85;51.83;100915.47;5078735;27;45921;-53
2022/09/01 01:55:50;;;;;;;;;12.25;10.25;;;;;22.99;51.56;100946.41;5077634;27;47700;-49
2022/09/01 01:58:18;;;;;;;;;13.00;13.00;;;;;23.00;51.74;100946.13;5077957;27;45385;-56
2022/09/01 02:00:45;;;;;;;;;13.20;12.20;;;;;22.99;51.77;100941.66;5078233;27;45438;-52
2022/09/01 02:03:17;;;;;;;;;12.00;12.00;;;;;22.95;51.57;100934.97;5078457;27;45675;-50
2022/09/01 02:05:43;;;;;;;;;12.60;12.60;;;;;22.56;51.93;100877.91;5078826;27;45768;-51
2022/09/01 02:08:09;;;;;;;;;13.25;11.25;;;;;22.78;52.07;100928.94;5066480;27;46655;-50
2022/09/01 02:10:40;;;;;;;;;11.50;10.75;;;;;22.87;52.01;100942.03;5077944;27;45274;-52
2022/09/01 02:13:06;;;;;;;;;13.00;10.20;;;;;22.72;52.57;100923.38;5078327;27;45384;-49
2022/09/01 02:15:43;;;;;;;;;12.50;12.00;;;;;22.86;52.44;100950.72;5095956;27;46372;-50
2022/09/01 02:18:19;;;;;;;;;10.00;10.00;;;;;22.71;52.50;100930.13;5094494;27;45239;-53
2022/09/01 02:20:46;;;;;;;;;14.00;11.60;;;;;22.71;53.10;100946.03;5095722;27;45442;-50
2022/09/01 02:23:14;;;;;;;;;13.60;11.80;;;;;22.73;52.82;100946.63;5060885;27;45378;-54
2022/09/01 02:25:42;;;;;;;;;10.40;10.40;;;;;22.76;52.69;100954.41;5078148;27;45464;-52
2022/09/01 02:28:14;;;;;;;;;15.00;11.40;;;;;22.84;52.74;100952.97;5095809;27;45288;-53
2022/09/01 02:30:41;;;;;;;;;12.20;10.00;;;;;22.84;52.63;100953.78;5079039;27;45428;-49
2022/09/01 02:33:08;;;;;;;;;10.40;9.60;;;;;22.65;52.93;100922.03;5096021;27;45563;-55
2022/09/01 02:35:36;;;;;;;;;11.60;11.60;;;;;22.80;52.73;100952.72;5094639;27;45593;-52
2022/09/01 02:38:05;;;;;;;;;10.20;10.20;;;;;22.81;52.67;100950.75;5095916;27;45310;-50
2022/09/01 02:40:31;;;;;;;;;10.40;10.40;;;;;22.84;52.56;100953.78;5077711;27;45305;-52
2022/09/01 02:42:58;;;;;;;;;11.20;8.60;;;;;22.87;52.68;100956.03;5096185;27;45302;-51
2022/09/01 02:45:25;;;;;;;;;10.20;10.20;;;;;22.66;52.91;100932.09;5077616;27;46162;-49
2022/09/01 02:47:51;;;;;;;;;11.60;11.40;;;;;22.84;52.51;100948.19;5077667;27;45317;-50
2022/09/01 02:50:17;;;;;;;;;12.80;11.80;;;;;22.79;53.02;100948.22;5096010;27;45286;-54
2022/09/01 02:52:48;;;;;;;;;11.00;11.00;;;;;22.66;53.02;100941.31;5077873;27;45340;-52
2022/09/01 02:55:18;;;;;;;;;10.40;9.20;;;;;22.58;52.92;100919.56;5096898;27;46590;-48
2022/09/01 02:57:45;;;;;;;;;11.00;10.40;;;;;22.65;53.05;100931.28;5081552;27;45520;-52
2022/09/01 03:00:19;;;;;;;;;13.00;13.00;;;;;22.79;52.96;100950.19;5099262;27;45374;-53
2022/09/01 03:02:47;;;;;;;;;7.80;7.80;;;;;22.72;53.28;100944.91;5099465;27;45447;-51
2022/09/01 03:05:15;;;;;;;;;12.40;12.40;;;;;22.72;53.14;100944.91;5099081;27;45612;-48
2022/09/01 03:07:41;;;;;;;;;11.00;11.00;;;;;22.52;53.23;100923.53;5104323;27;45367;-53
2022/09/01 03:10:08;;;;;;;;;13.20;10.40;;;;;22.66;53.25;100932.94;5119586;27;45296;-54
2022/09/01 03:12:34;;;;;;;;;13.20;11.80;;;;;22.66;53.40;100938.53;5101760;27;45415;-53
2022/09/01 03:14:59;;;;;;;;;10.00;10.00;;;;;22.68;53.30;100933.47;5119632;27;46077;-50
2022/09/01 03:17:25;;;;;;;;;10.50;10.50;;;;;22.72;53.14;100939.31;5119581;27;45287;-53
2022/09/01 03:19:50;;;;;;;;;13.50;10.75;;;;;22.41;53.50;100908.75;5119610;27;45340;-50
2022/09/01 03:22:16;;;;;;;;;12.75;10.25;;;;;22.54;53.79;100933.28;5119874;27;45487;-51
2022/09/01 03:24:42;;;;;;;;;11.25;9.75;;;;;22.58;53.27;100928.78;5119235;27;46857;-52
2022/09/01 03:27:10;;;;;;;;;12.25;11.00;;;;;22.61;53.50;100932.97;5118909;27;45309;-49
2022/09/01 03:29:37;;;;;;;;;11.40;11.40;;;;;22.56;53.37;100924.59;5119536;27;45192;-51
2022/09/01 03:32:03;;;;;;;;;7.60;7.20;;;;;22.50;53.50;100922.94;5101268;27;45361;-55
2022/09/01 03:34:28;;;;;;;;;12.40;11.60;;;;;22.45;53.78;100933.03;5118610;27;46789;-52
2022/09/01 03:36:55;;;;;;;;;10.75;10.75;;;;;22.37;54.24;100930.84;5100392;27;45736;-50
2022/09/01 03:39:20;;;;;;;;;12.40;10.20;;;;;22.43;54.05;100931.66;5119285;27;45438;-50
2022/09/01 03:41:46;;;;;;;;;13.00;11.25;;;;;22.32;54.40;100926.09;5119068;27;45969;-54
2022/09/01 03:44:13;;;;;;;;;13.00;11.00;;;;;22.29;54.19;100923.88;5083731;27;46384;-51
2022/09/01 03:46:39;;;;;;;;;13.00;13.00;;;;;22.05;54.84;100901.38;5118944;27;45364;-55
2022/09/01 03:49:06;;;;;;;;;10.25;10.25;;;;;22.17;54.87;100927.03;5119004;27;45260;-56
2022/09/01 03:51:32;;;;;;;;;16.00;12.40;;;;;22.09;54.90;100916.41;5119045;27;45161;-51
2022/09/01 03:53:58;;;;;;;;;12.75;11.50;;;;;22.18;54.88;100927.84;5100614;27;45742;-51
2022/09/01 03:56:26;;;;;;;;;13.00;13.00;;;;;22.18;55.07;100923.09;5118693;27;45420;-50
2022/09/01 03:58:52;;;;;;;;;13.80;12.20;;;;;21.93;55.03;100901.69;5118760;27;45245;-50
2022/09/01 04:01:18;;;;;;;;;11.60;10.00;;;;;22.23;54.62;100922.22;5071153;27;45657;-49
2022/09/01 04:03:47;;;;;;;;;12.00;11.25;;;;;22.11;54.77;100918.94;5092311;27;45516;-52
2022/09/01 04:06:13;;;;;;;;;13.80;12.00;;;;;21.92;55.03;100888.81;5079615;27;45457;-51
2022/09/01 04:08:39;;;;;;;;;13.60;13.60;;;;;21.86;55.28;100888.03;5097727;27;45444;-53
2022/09/01 04:11:12;;;;;;;;;15.00;13.25;;;;;22.04;55.29;100913.66;5098054;27;45391;-50
2022/09/01 04:13:39;;;;;;;;;14.20;13.00;;;;;22.02;55.27;100911.16;5077839;27;45876;-48
2022/09/01 04:16:09;;;;;;;;;11.00;9.60;;;;;22.07;55.20;100913.06;5097621;27;45310;-55
2022/09/01 04:18:35;;;;;;;;;13.60;12.00;;;;;22.08;54.95;100909.16;5097957;27;45218;-53
2022/09/01 04:21:00;;;;;;;;;11.75;11.75;;;;;22.11;54.88;100914.19;5098146;27;45195;-51
2022/09/01 04:23:32;;;;;;;;;12.50;12.00;;;;;21.98;55.05;100884.88;5097219;27;46664;-50
2022/09/01 04:26:07;;;;;;;;;13.20;11.80;;;;;22.21;54.77;100916.91;5080264;27;45333;-50
2022/09/01 04:28:36;;;;;;;;;12.80;12.80;;;;;21.96;54.88;100884.34;5098074;27;45392;-49
2022/09/01 04:31:04;;;;;;;;;13.80;12.20;;;;;21.69;55.00;100846.47;5080094;27;45545;-49
2022/09/01 04:33:35;;;;;;;;;12.60;10.40;;;;;22.14;54.84;100901.59;5096792;27;45462;-55
2022/09/01 04:36:01;;;;;;;;;10.20;10.20;;;;;21.76;54.73;100844.19;5080477;27;45289;-53
2022/09/01 04:38:28;;;;;;;;;11.40;11.40;;;;;21.94;54.76;100861.44;5096636;27;45431;-50
2022/09/01 04:40:56;;;;;;;;;11.40;11.40;;;;;22.19;54.47;100904.34;5098075;27;45401;-48
2022/09/01 04:43:22;;;;;;;;;11.60;10.00;;;;;22.23;54.58;100899.03;5092271;27;45462;-49
2022/09/01 04:45:50;;;;;;;;;11.00;8.80;;;;;22.14;54.67;100905.22;5097366;27;45726;-51
2022/09/01 04:48:21;;;;;;;;;11.00;9.40;;;;;22.14;54.91;100910.81;5097587;27;45303;-52
2022/09/01 04:50:48;;;;;;;;;10.80;9.60;;;;;22.01;54.71;100886.28;5097517;27;45446;-53
2022/09/01 04:53:14;;;;;;;;;12.80;11.80;;;;;22.11;54.76;100910.53;5096029;27;45684;-49
2022/09/01 04:55:43;;;;;;;;;12.80;11.80;;;;;21.95;54.91;100882.69;5096467;27;45389;-52
2022/09/01 04:58:11;;;;;;;;;7.60;7.60;;;;;22.12;54.98;100906.63;5096092;27;45501;-52
2022/09/01 05:00:37;;;;;;;;;12.00;10.60;;;;;22.15;55.04;100906.06;5096692;27;45468;-54
2022/09/01 05:03:03;;;;;;;;;12.25;9.25;;;;;22.12;54.91;100910.28;5097163;27;45449;-52
2022/09/01 05:05:38;;;;;;;;;9.50;9.50;;;;;22.09;54.94;100908.03;5097124;27;45313;-50
2022/09/01 05:08:04;;;;;;;;;12.00;9.00;;;;;22.13;54.97;100906.34;5097117;27;45412;-54
2022/09/01 05:10:33;;;;;;;;;10.80;10.80;;;;;22.15;54.72;100918.06;5099478;27;45297;-51
2022/09/01 05:13:00;;;;;;;;;11.00;9.80;;;;;22.20;54.76;100917.22;5117746;27;45628;-55
2022/09/01 05:15:26;;;;;;;;;14.40;12.80;;;;;22.20;54.80;100920.84;5117181;27;45536;-50
2022/09/01 05:17:53;;;;;;;;;10.75;10.75;;;;;22.18;54.55;100908.28;5099586;27;45464;-49
2022/09/01 05:20:20;;;;;;;;;11.60;8.80;;;;;22.19;54.50;100921.97;5118173;27;45236;-49
2022/09/01 05:22:45;;;;;;;;;11.40;11.40;;;;;22.21;54.51;100918.91;5099110;27;45515;-50
2022/09/01 05:25:12;;;;;;;;;7.75;7.75;;;;;22.14;54.72;100912.78;5108217;27;45201;-50
2022/09/01 05:27:41;;;;;;;;;11.40;11.40;;;;;21.90;54.84;100888.28;5056960;27;46365;-51
2022/09/01 05:30:07;;;;;;;;;7.60;7.60;;;;;22.06;54.85;100915.06;5092681;27;45645;-54
2022/09/01 05:32:36;;;;;;;;;14.20;14.20;;;;;22.04;54.68;100908.91;5072053;27;47049;-52
2022/09/01 05:35:07;;;;;;;;;10.80;9.40;;;;;21.88;55.02;100885.75;5103707;27;45337;-50
2022/09/01 05:37:33;;;;;;;;;7.60;7.60;;;;;22.06;54.77;100909.47;5111485;27;45726;-51
2022/09/01 05:40:00;;;;;;;;;10.40;10.40;;;;;21.93;54.80;100882.97;5112950;27;45558;-52
2022/09/01 05:42:27;;;;;;;;;10.60;9.40;;;;;22.14;54.50;100913.59;5079644;27;45495;-51
2022/09/01 05:44:53;;;;;;;;;11.60;10.60;;;;;22.05;55.01;100923.72;5091405;27;45470;-51
2022/09/01 05:47:20;;;;;;;;;12.00;10.50;;;;;22.00;55.01;100913.41;5104781;27;45413;-52
2022/09/01 05:49:46;;;;;;;;;12.00;12.00;;;;;22.06;55.01;100914.22;5094532;27;45423;-52
2022/09/01 05:52:12;;;;;;;;;9.60;8.20;;;;;22.09;54.67;100918.38;5112185;27;46754;-55
2022/09/01 05:54:37;;;;;;;;;12.75;11.00;;;;;22.02;54.75;100916.75;5093863;27;45407;-55
2022/09/01 05:57:03;;;;;;;;;11.75;11.25;;;;;22.05;54.85;100915.34;5112614;27;45555;-55
2022/09/01 05:59:32;;;;;;;;;17.00;13.00;;;;;21.85;54.54;100872.38;5111442;27;45455;-55
2022/09/01 06:01:57;;;;;;;;;11.40;9.80;;;;;22.09;54.53;100913.63;5112235;27;45975;-54
2022/09/01 06:04:24;;;;;;;;;13.75;11.75;;;;;22.02;54.59;100896.31;5112075;27;45353;-51
2022/09/01 06:06:49;;;;;;;;;10.40;10.00;;;;;22.14;54.28;100912.78;5094255;27;45481;-52
2022/09/01 06:09:17;;;;;;;;;11.25;11.25;;;;;22.01;54.18;100898.31;5111242;27;45509;-55
2022/09/01 06:11:45;;;;;;;;;12.00;10.40;;;;;22.18;54.44;100919.47;5093981;27;46121;-55
2022/09/01 06:14:11;;;;;;;;;15.60;14.60;;;;;22.16;54.08;100919.75;5112019;27;45820;-52
2022/09/01 06:16:37;;;;;;;;;9.20;9.20;;;;;22.08;54.10;100903.56;5077214;27;45885;-52
2022/09/01 06:19:03;;;;;;;;;10.80;9.40;;;;;22.12;54.27;100910.28;5094111;27;45681;-51
2022/09/01 06:21:30;;;;;;;;;12.75;10.75;;;;;22.15;53.97;100920.03;5093720;27;46717;-54
2022/09/01 06:23:57;;;;;;;;;11.00;9.40;;;;;22.09;53.83;100896.84;5093243;27;45482;-50
2022/09/01 06:26:27;;;;;;;;;10.00;10.00;;;;;22.27;54.17;100925.28;5069338;27;45377;-52
2022/09/01 06:28:57;;;;;;;;;13.80;12.40;;;;;22.32;53.83;100926.09;5112007;27;45711;-54
2022/09/01 06:31:23;;;;;;;;;11.40;10.60;;;;;22.34;53.76;100925.81;5096762;27;47084;-49
2022/09/01 06:33:52;;;;;;;;;9.00;9.00;;;;;22.32;53.80;100925.28;5077064;27;45460;-51
2022/09/01 06:36:22;;;;;;;;;11.80;10.80;;;;;22.38;53.78;100935.31;5077079;27;45403;-50
2022/09/01 06:38:50;;;;;;;;;20.60;14.60;;;;;22.43;53.60;100923.25;5077182;27;45507;-52
2022/09/01 06:41:18;;;;;;;;;14.80;13.80;;;;;22.36;53.74;100919.94;5094874;27;46725;-51
2022/09/01 06:43:47;;;;;;;;;13.80;12.00;;;;;22.36;53.77;100923.56;5075681;27;46050;-50
2022/09/01 06:46:12;;;;;;;;;10.20;10.20;;;;;22.43;53.67;100931.66;5086517;27;45590;-50
2022/09/01 06:48:38;;;;;;;;;17.25;16.25;;;;;22.45;53.49;100918.19;5095153;27;45847;-51
2022/09/01 06:51:06;;;;;;;;;10.00;8.60;;;;;22.33;53.11;100893.38;5094747;27;46728;-55
2022/09/01 06:53:33;;;;;;;;;12.40;11.60;;;;;22.38;53.47;100918.53;5076461;27;45517;-57
2022/09/01 06:55:58;;;;;;;;;12.60;10.80;;;;;22.35;53.31;100896.72;5094673;27;45620;-51
2022/09/01 06:58:24;;;;;;;;;14.50;13.00;;;;;22.56;53.01;100930.19;5094924;27;45968;-53
2022/09/01 07:00:50;;;;;;;;;13.75;13.25;;;;;22.56;52.90;100931.03;5076094;27;46649;-50
2022/09/01 07:03:16;;;;;;;;;15.00;12.60;;;;;22.51;53.40;100939.44;5076269;27;45384;-50
2022/09/01 07:05:44;;;;;;;;;15.60;13.20;;;;;22.44;53.56;100933.31;5058561;27;45473;-50
2022/09/01 07:08:14;;;;;;;;;14.80;14.20;;;;;22.29;53.33;100911.84;5079861;27;45389;-54
2022/09/01 07:10:45;;;;;;;;;14.20;14.20;;;;;22.42;53.55;100922.41;5097465;27;45976;-48
2022/09/01 07:13:22;;;;;;;;;12.60;11.20;;;;;22.47;53.12;100929.94;5113998;27;45893;-49
2022/09/01 07:15:49;;;;;;;;;16.20;13.40;;;;;22.26;53.49;100898.47;5114686;27;45360;-49
2022/09/01 07:18:16;;;;;;;;;14.80;13.60;;;;;22.50;53.28;100945.31;5096998;27;45545;-54
2022/09/01 07:20:43;;;;;;;;;11.60;11.60;;;;;22.56;53.15;100932.97;5115137;27;46891;-51
2022/09/01 07:23:08;;;;;;;;;15.80;14.80;;;;;22.41;52.86;100900.34;5089293;27;45577;-52
2022/09/01 07:25:37;;;;;;;;;11.25;11.25;;;;;22.47;53.06;100904.78;5048221;27;45809;-55
2022/09/01 07:28:04;;;;;;;;;17.00;16.00;;;;;22.65;52.93;100925.66;5076020;27;45814;-52
2022/09/01 07:30:30;;;;;;;;;15.40;14.40;;;;;22.69;53.11;100923.94;5094041;27;46062;-51
2022/09/01 07:32:56;;;;;;;;;15.80;14.60;;;;;22.61;53.25;100939.41;5094085;27;45478;-52
2022/09/01 07:35:22;;;;;;;;;15.40;15.40;;;;;22.60;53.49;100951.72;5094151;27;45479;-51
2022/09/01 07:37:49;;;;;;;;;15.20;15.20;;;;;22.73;53.31;100946.63;5076906;27;45490;-49
2022/09/01 07:40:17;;;;;;;;;15.00;14.20;;;;;22.75;53.16;100938.75;5073398;28;45470;-54
2022/09/01 07:42:44;;;;;;;;;12.20;11.40;;;;;22.84;52.60;100939.81;5054023;28;45433;-55
2022/09/01 07:45:11;;;;;;;;;13.40;12.20;;;;;22.92;52.50;100941.16;5067294;27;45853;-55
2022/09/01 07:47:36;;;;;;;;;15.60;12.60;;;;;22.97;52.67;100940.28;5071712;27;45429;-52
2022/09/01 07:50:05;;;;;;;;;15.25;14.00;;;;;22.78;52.57;100903.78;5087697;27;46473;-54
2022/09/01 07:52:32;;;;;;;;;19.00;17.80;;;;;22.94;52.25;100941.69;5064919;28;45567;-54
2022/09/01 07:54:58;;;;;;;;;24.60;21.60;;;;;22.95;52.41;100953.72;5062302;28;45388;-55
2022/09/01 07:57:23;;;;;;;;;11.50;11.50;;;;;22.88;52.22;100932.50;5055403;28;45450;-52
2022/09/01 07:59:50;;;;;;;;;16.50;16.50;;;;;22.84;52.55;100916.59;5072987;28;46230;-51
2022/09/01 08:02:17;;;;;;;;;14.40;12.60;;;;;22.99;52.12;100943.59;5073191;28;45398;-52
2022/09/01 08:04:42;;;;;;;;;14.00;12.00;;;;;22.98;52.46;100942.78;5073310;28;45914;-51
2022/09/01 08:07:09;;;;;;;;;13.00;13.00;;;;;23.07;52.09;100944.97;5073337;28;45505;-49
2022/09/01 08:09:36;;;;;;;;;15.00;13.00;;;;;22.99;51.83;100932.41;5071818;27;45833;-49
2022/09/01 08:12:03;;;;;;;;;13.60;12.00;;;;;23.09;52.23;100942.69;5054712;28;45334;-52
2022/09/01 08:14:30;;;;;;;;;18.80;13.60;;;;;23.06;51.86;100932.94;5073179;28;45480;-52
2022/09/01 08:16:55;;;;;;;;;16.80;14.80;;;;;23.13;52.21;100935.41;5073536;28;45815;-51
2022/09/01 08:19:21;;;;;;;;;14.00;13.00;;;;;23.15;51.69;100935.94;5073074;28;45515;-56
2022/09/01 08:21:47;;;;;;;;;12.00;10.80;;;;;23.08;51.95;100944.66;5073753;27;45561;-51
2022/09/01 08:24:13;;;;;;;;;13.75;11.25;;;;;23.00;52.08;100946.13;5077051;27;45738;-48
2022/09/01 08:26:39;;;;;;;;;12.50;11.00;;;;;22.96;52.22;100935.81;5044050;27;45462;-52
2022/09/01 08:29:04;;;;;;;;;13.50;13.50;;;;;23.04;51.98;100940.78;5077774;27;46725;-51
2022/09/01 08:31:29;;;;;;;;;11.75;11.75;;;;;23.12;51.71;100951.34;5065990;28;45785;-54
2022/09/01 08:33:55;;;;;;;;;18.25;17.00;;;;;23.19;51.96;100952.97;5070183;27;45396;-52
2022/09/01 08:36:21;;;;;;;;;12.25;10.50;;;;;23.24;51.48;100958.53;5071657;28;45518;-56
2022/09/01 08:38:47;;;;;;;;;14.50;12.50;;;;;23.27;51.22;100946.75;5085281;27;46585;-56
2022/09/01 08:41:35;;;;;;;;;18.25;17.00;;;;;23.32;51.42;100948.72;5082965;27;45368;-51
2022/09/01 08:44:16;;;;;;;;;14.40;14.40;;;;;23.43;51.12;100953.09;5054369;27;46036;-54
2022/09/01 08:46:42;;;;;;;;;14.60;13.60;;;;;23.51;51.20;100955.25;5040952;28;45427;-54
2022/09/01 08:49:27;;;;;;;;;13.80;12.00;;;;;23.61;50.44;100948.72;5056636;27;46308;-57
2022/09/01 08:52:20;;;;;;;;;13.80;12.60;;;;;23.72;50.69;100954.19;5089763;27;45894;-54
2022/09/01 08:54:59;;;;;;;;;15.20;14.00;;;;;23.62;50.09;100933.56;5091965;27;45423;-49
2022/09/01 08:57:44;;;;;;;;;16.00;15.00;;;;;23.81;50.34;100956.06;5074285;27;45712;-54
2022/09/01 09:00:12;;;;;;;;;15.40;14.80;;;;;23.72;49.81;100921.41;5060386;28;47590;-54
2022/09/01 09:03:15;;;;;;;;;17.40;14.40;;;;;23.99;49.49;100959.22;5076331;28;45454;-55
2022/09/01 09:06:05;;;;;;;;;12.40;12.00;;;;;23.81;49.60;100916.00;5075664;28;45453;-55
2022/09/01 09:08:51;;;;;;;;;13.00;13.00;;;;;24.14;49.44;100966.66;5076494;28;45304;-57
2022/09/01 09:11:28;;;;;;;;;17.40;16.00;;;;;24.13;49.76;100962.19;5075467;28;45326;-55
2022/09/01 09:14:00;;;;;;;;;9.60;9.60;;;;;24.02;49.66;100938.19;5076263;28;45398;-57
2022/09/01 09:16:34;;;;;;;;;14.60;13.60;;;;;24.21;48.83;100946.66;5076007;28;45385;-56
2022/09/01 09:19:09;;;;;;;;;16.80;14.80;;;;;24.35;48.46;100958.00;5041927;28;45304;-56
2022/09/01 09:21:37;;;;;;;;;15.60;13.20;;;;;24.25;48.42;100925.31;5042501;28;45632;-58
2022/09/01 09:24:46;;;;;;;;;12.20;11.40;;;;;24.46;48.55;100953.91;5058152;27;45250;-54
2022/09/01 09:27:28;;;;;;;;;11.00;10.80;;;;;24.57;47.92;100956.56;5066927;27;45450;-54
2022/09/01 09:29:59;;;;;;;;;11.60;11.60;;;;;24.67;48.32;100952.78;5097262;27;45457;-52
2022/09/01 09:33:04;;;;;;;;;14.80;13.60;;;;;24.73;47.48;100951.56;5096370;27;45720;-56
2022/09/01 09:35:40;;;;;;;;;16.00;14.00;;;;;24.83;47.54;100945.84;5079043;27;45352;-56
2022/09/01 09:38:17;;;;;;;;;15.40;13.20;;;;;24.92;47.62;100943.19;5078774;27;45373;-52
2022/09/01 09:41:02;;;;;;;;;13.00;13.00;;;;;24.92;47.18;100939.53;5096738;27;45475;-56
2022/09/01 09:43:29;;;;;;;;;14.60;14.60;;;;;24.77;47.45;100925.41;5078485;27;46767;-54
2022/09/01 09:46:23;;;;;;;;;14.80;13.20;;;;;24.84;47.53;100938.25;5061755;27;45511;-56
2022/09/01 09:49:09;;;;;;;;;14.20;13.40;;;;;24.90;47.58;100942.63;5078299;27;45618;-57
2022/09/01 09:51:35;;;;;;;;;17.80;14.80;;;;;24.90;47.38;100943.47;5096435;27;45439;-55
2022/09/01 09:54:23;;;;;;;;;13.75;13.75;;;;;24.93;47.42;100944.00;5096319;27;46192;-57
2022/09/01 09:57:01;;;;;;;;;16.80;16.80;;;;;24.90;47.39;100934.22;5079261;27;45423;-55
2022/09/01 09:59:31;;;;;;;;;14.20;14.20;;;;;24.94;47.39;100940.91;5060966;27;45297;-56
2022/09/01 10:01:58;;;;;;;;;11.60;11.60;;;;;24.96;47.56;100926.56;5079067;27;45486;-54
2022/09/01 10:04:37;;;;;;;;;16.80;15.00;;;;;25.08;47.13;100942.94;5076917;27;46732;-55
2022/09/01 10:07:34;;;;;;;;;15.20;14.80;;;;;25.20;47.08;100936.81;5096292;27;45212;-53
2022/09/01 10:10:07;;;;;;;;;19.40;17.00;;;;;25.25;46.91;100931.97;5080210;27;45355;-57
2022/09/01 10:12:32;;;;;;;;;16.60;16.60;;;;;25.34;46.49;100934.88;5079379;27;45246;-53
2022/09/01 10:15:07;;;;;;;;;18.75;17.50;;;;;25.37;46.61;100928.66;5096259;27;46360;-54
2022/09/01 10:17:36;;;;;;;;;17.60;17.60;;;;;25.23;46.31;100910.94;5078000;27;45424;-56
2022/09/01 10:20:06;;;;;;;;;14.40;13.40;;;;;25.40;46.85;100930.84;5077897;27;45412;-55
2022/09/01 10:22:33;;;;;;;;;16.80;16.60;;;;;25.56;46.89;100934.25;5095079;27;45385;-56
2022/09/01 10:25:02;;;;;;;;;16.00;15.00;;;;;25.53;45.95;100909.59;5077585;27;47052;-57
2022/09/01 10:27:35;;;;;;;;;14.60;12.60;;;;;25.78;45.89;100929.88;5095963;27;45411;-58
2022/09/01 10:30:17;;;;;;;;;14.00;13.80;;;;;25.89;45.26;100926.88;5096220;27;45415;-56
2022/09/01 10:32:45;;;;;;;;;15.60;14.60;;;;;25.89;45.11;100898.78;5062420;27;45509;-56
2022/09/01 10:35:18;;;;;;;;;13.20;13.20;;;;;26.21;44.19;100927.91;5077776;27;45423;-54
2022/09/01 10:37:44;;;;;;;;;14.00;12.00;;;;;26.25;44.38;100921.38;5077992;27;45396;-53
2022/09/01 10:40:09;;;;;;;;;17.75;17.75;;;;;26.47;44.26;100930.19;5077893;27;45828;-52
2022/09/01 10:42:35;;;;;;;;;12.00;11.00;;;;;26.54;43.50;100919.34;5096194;27;45399;-52
2022/09/01 10:45:03;;;;;;;;;12.00;12.00;;;;;26.71;43.48;100920.63;5060506;27;46188;-54
2022/09/01 10:47:32;;;;;;;;;12.60;10.40;;;;;26.76;43.30;100926.16;5095802;27;45424;-53
2022/09/01 10:50:23;;;;;;;;;11.60;10.00;;;;;26.78;43.34;100921.00;5078029;27;45418;-55
2022/09/01 10:52:53;;;;;;;;;11.40;11.40;;;;;26.64;43.33;100898.56;5087626;27;45416;-55
2022/09/01 10:55:44;;;;;;;;;9.80;8.60;;;;;26.71;42.88;100913.03;5077523;27;47472;-50
2022/09/01 10:58:28;;;;;;;;;11.60;10.60;;;;;26.74;42.93;100915.19;5080182;27;45214;-57
2022/09/01 11:00:53;;;;;;;;;9.00;9.00;;;;;26.76;42.84;100912.91;5094583;27;45380;-53
2022/09/01 11:03:20;;;;;;;;;10.00;9.00;;;;;26.77;42.72;100923.03;5077736;27;45275;-57
2022/09/01 11:05:58;;;;;;;;;11.60;11.60;;;;;26.81;42.69;100917.59;5095394;27;46657;-56
2022/09/01 11:08:45;;;;;;;;;11.60;10.00;;;;;26.83;42.43;100914.47;5095289;27;45988;-55
2022/09/01 11:11:22;;;;;;;;;10.60;9.00;;;;;26.73;42.78;100898.66;5094353;27;45417;-57
2022/09/01 11:13:49;;;;;;;;;11.40;9.80;;;;;26.78;42.80;100904.97;5076090;27;45729;-54
2022/09/01 11:16:37;;;;;;;;;11.00;11.00;;;;;26.82;42.47;100901.53;5095261;27;45688;-54
2022/09/01 11:19:15;;;;;;;;;12.20;11.80;;;;;26.92;42.60;100899.31;5097826;27;45343;-55
2022/09/01 11:21:40;;;;;;;;;10.00;8.80;;;;;26.89;42.07;100874.56;5098742;27;45389;-53
2022/09/01 11:24:37;;;;;;;;;8.75;8.75;;;;;27.17;41.60;100894.16;5096749;27;45449;-51
2022/09/01 11:27:05;;;;;;;;;9.40;9.40;;;;;27.27;41.42;100892.25;5078149;28;46361;-52